Time;durP1;ratioP1;P1;durP2;ratioP2;P2;SDS_P1;SDS_P2;PMS_P1;PMS_P2;Temp;Humidity;BMP_temperature;BMP_pressure;BME280_temperature;BME280_humidity;BME280_pressure;Samples;Min_cycle;Max_cycle;Signal;HPM_P1;HPM_P2
2021/05/11 00:00:14;;;;;;;;;33.75;30.25;;;;;14.09;55.70;101151.09;4915666;29;11091;-74
2021/05/11 00:03:09;;;;;;;;;33.00;31.75;;;;;14.21;55.18;101132.81;4915627;29;11125;-73
2021/05/11 00:06:05;;;;;;;;;42.25;36.75;;;;;14.24;55.28;101137.69;4915572;29;11107;-74
2021/05/11 00:09:00;;;;;;;;;41.25;36.25;;;;;14.25;54.98;101130.97;4915564;29;11176;-74
2021/05/11 00:11:56;;;;;;;;;23.25;22.25;;;;;14.28;53.87;101133.06;4915285;29;11164;-74
2021/05/11 00:14:51;;;;;;;;;21.00;20.25;;;;;14.46;53.31;101131.72;4916133;29;10745;-74
2021/05/11 00:17:47;;;;;;;;;23.75;22.50;;;;;14.44;53.11;101139.59;4915461;29;11162;-74
2021/05/11 00:20:43;;;;;;;;;29.25;29.25;;;;;14.36;52.08;101126.59;4915298;29;10438;-74
2021/05/11 00:23:38;;;;;;;;;24.25;24.25;;;;;14.59;51.83;101119.44;4916713;29;10863;-73
2021/05/11 00:26:37;;;;;;;;;41.00;37.00;;;;;14.62;51.41;101113.19;4915274;29;10860;-74
2021/05/11 00:29:05;;;;;;;;;23.00;21.25;;;;;14.78;51.44;101124.44;4916556;29;11062;-74
2021/05/11 00:32:05;;;;;;;;;24.50;23.25;;;;;14.72;50.79;101109.94;4919270;29;11532;-74
2021/05/11 00:34:32;;;;;;;;;38.25;35.00;;;;;14.86;50.37;101094.81;4920161;29;10533;-74
2021/05/11 00:37:28;;;;;;;;;29.75;27.25;;;;;15.06;50.14;101093.88;4919235;29;10705;-73
2021/05/11 00:40:23;;;;;;;;;28.00;25.50;;;;;15.02;49.97;101092.94;4919296;29;10733;-74
2021/05/11 00:43:19;;;;;;;;;28.50;25.75;;;;;15.13;49.27;101096.06;4920236;29;10575;-74
2021/05/11 00:46:15;;;;;;;;;41.25;33.00;;;;;15.01;49.17;101102.47;4919156;29;10345;-74
2021/05/11 00:49:11;;;;;;;;;52.25;41.50;;;;;15.02;48.78;101081.81;4918678;29;10480;-74
2021/05/11 00:52:07;;;;;;;;;42.50;35.00;;;;;15.08;50.32;101079.59;4919036;29;10954;-74
2021/05/11 00:54:36;;;;;;;;;36.00;31.75;;;;;15.28;50.09;101078.63;4919867;29;11439;-73
2021/05/11 00:57:33;;;;;;;;;36.00;34.00;;;;;15.19;50.15;101086.31;4918735;29;10441;-73
2021/05/11 01:00:30;;;;;;;;;37.00;33.75;;;;;15.16;50.11;101096.16;4919749;29;10725;-74
2021/05/11 01:03:26;;;;;;;;;51.75;43.50;;;;;15.07;50.33;101091.91;4918642;29;10487;-74
2021/05/11 01:06:22;;;;;;;;;47.00;39.50;;;;;15.07;51.39;101094.69;4919021;29;11771;-74
2021/05/11 01:09:17;;;;;;;;;18.25;17.25;;;;;14.94;52.94;101080.78;4919941;29;10903;-74
2021/05/11 01:12:13;;;;;;;;;19.50;19.25;;;;;15.07;53.77;101086.34;4918599;29;9886;-74
2021/05/11 01:15:09;;;;;;;;;43.00;36.75;;;;;14.92;55.14;101079.50;4919963;29;10054;-74
2021/05/11 01:18:14;;;;;;;;;61.00;48.00;;;;;15.00;55.53;101079.38;4918467;29;10861;-74
2021/05/11 01:24:24;;;;;;;;;62.75;50.00;;;;;15.15;55.87;101080.63;4899557;29;11267;-74
2021/05/11 01:27:28;;;;;;;;;69.00;50.50;;;;;15.24;55.44;101067.34;4900522;29;11582;-73
2021/05/11 01:55:32;;;;;;;;;19.75;19.75;;;;;15.22;53.88;101052.97;4898820;29;9742;-74
2021/05/11 02:24:09;;;;;;;;;14.75;14.25;;;;;15.22;50.32;101024.31;4916965;29;10295;-74
2021/05/11 02:27:05;;;;;;;;;15.50;15.50;;;;;15.35;50.27;101017.53;4917224;29;9810;-74
2021/05/11 02:29:32;;;;;;;;;23.50;22.50;;;;;15.40;50.25;101019.22;4918128;29;10848;-74
2021/05/11 02:32:09;;;;;;;;;21.00;20.75;;;;;15.27;50.56;100993.41;4917286;29;10055;-74
2021/05/11 02:35:05;;;;;;;;;16.25;15.75;;;;;15.29;50.22;100994.66;4917025;29;9975;-74
2021/05/11 02:38:01;;;;;;;;;18.50;17.25;;;;;15.41;50.19;100992.97;4917033;29;9921;-75
2021/05/11 02:40:57;;;;;;;;;16.25;14.75;;;;;15.34;49.89;100978.88;4916977;29;10091;-74
2021/05/11 02:43:53;;;;;;;;;3.25;3.00;;;;;15.40;49.99;100985.78;4914524;29;9906;-74
2021/05/11 02:46:48;;;;;;;;;22.50;21.25;;;;;15.47;49.68;100986.78;4905615;29;9827;-74
2021/05/11 02:49:45;;;;;;;;;32.00;31.50;;;;;15.42;49.33;100983.47;4922476;29;9958;-74
2021/05/11 02:52:41;;;;;;;;;34.50;33.00;;;;;15.42;49.27;100987.06;4935360;29;10686;-74
2021/05/11 02:55:36;;;;;;;;;32.00;29.75;;;;;15.45;49.49;100993.88;4935711;29;10380;-74
2021/05/11 02:58:17;;;;;;;;;27.25;26.00;;;;;15.35;50.00;100986.88;4936548;29;9983;-75
2021/05/11 03:00:46;;;;;;;;;24.75;24.25;;;;;15.43;49.75;100996.22;4936580;29;10918;-74
2021/05/11 03:03:42;;;;;;;;;26.50;22.50;;;;;15.37;50.14;100986.50;4917268;29;10179;-74
2021/05/11 03:06:38;;;;;;;;;25.25;23.50;;;;;15.36;49.61;100991.28;4925749;29;9925;-74
2021/05/11 03:09:14;;;;;;;;;25.75;22.75;;;;;15.48;49.80;100987.59;4917462;29;10928;-74
2021/05/11 03:11:42;;;;;;;;;19.25;17.75;;;;;15.36;49.89;100987.69;4917428;29;10075;-73
2021/05/11 03:14:37;;;;;;;;;20.00;19.25;;;;;15.40;49.74;100986.59;4916266;29;9931;-74
2021/05/11 03:17:34;;;;;;;;;26.00;24.50;;;;;15.40;49.65;100989.38;4916148;29;10197;-73
2021/05/11 03:20:29;;;;;;;;;31.25;27.75;;;;;15.53;49.37;100981.78;4915809;29;10203;-73
2021/05/11 03:23:25;;;;;;;;;39.00;34.75;;;;;15.52;49.51;100989.31;4900818;29;10351;-74
2021/05/11 03:26:20;;;;;;;;;35.75;32.25;;;;;15.40;49.27;100996.94;4913078;29;10412;-74
2021/05/11 03:29:16;;;;;;;;;35.75;33.50;;;;;15.62;49.00;100995.56;4915139;29;10218;-74
2021/05/11 03:32:12;;;;;;;;;42.00;36.00;;;;;15.64;48.98;101001.59;4917312;29;10417;-74
2021/05/11 03:34:40;;;;;;;;;39.50;36.00;;;;;15.55;48.81;101004.50;4907456;29;10473;-74
2021/05/11 03:37:36;;;;;;;;;44.00;36.25;;;;;15.58;48.94;100999.06;4915731;29;10591;-74
2021/05/11 03:40:31;;;;;;;;;36.50;34.50;;;;;15.51;49.05;101003.63;4920674;29;11054;-74
2021/05/11 03:43:32;;;;;;;;;42.00;33.50;;;;;15.71;48.83;100997.00;4915384;29;10509;-74
2021/05/11 03:46:13;;;;;;;;;25.50;24.75;;;;;15.64;48.72;101002.44;4915872;29;10298;-74
2021/05/11 03:49:09;;;;;;;;;26.75;24.00;;;;;15.52;48.92;100994.09;4914951;29;10130;-74
2021/05/11 03:52:06;;;;;;;;;33.00;31.50;;;;;15.73;48.59;100982.72;4921497;29;10398;-74
2021/05/11 03:55:02;;;;;;;;;36.75;33.25;;;;;15.75;48.77;100983.97;4915071;29;10502;-73
2021/05/11 03:57:58;;;;;;;;;34.75;32.00;;;;;15.49;48.28;100969.72;4916117;29;10469;-74
2021/05/11 04:00:25;;;;;;;;;21.50;21.50;;;;;15.55;49.01;100990.56;4916751;29;10383;-74
2021/05/11 04:02:53;;;;;;;;;31.00;28.00;;;;;15.60;48.55;100978.38;4915962;29;10169;-74
2021/05/11 04:05:50;;;;;;;;;36.00;34.50;;;;;15.58;48.47;100968.38;4908814;29;10315;-73
2021/05/11 04:08:50;;;;;;;;;27.00;27.00;;;;;15.54;48.37;100977.81;4915133;29;10460;-74
2021/05/11 04:17:11;;;;;;;;;21.50;20.50;;;;;15.81;47.74;100999.28;4914846;29;10411;-78
2021/05/11 04:20:07;;;;;;;;;20.25;17.50;;;;;15.80;47.78;100989.31;4916064;29;9889;-79
2021/05/11 04:23:04;;;;;;;;;27.75;25.75;;;;;15.49;48.53;100986.44;4914739;29;9929;-78
2021/05/11 04:25:59;;;;;;;;;15.75;14.25;;;;;15.58;48.93;100981.50;4915196;29;10152;-80
2021/05/11 04:28:55;;;;;;;;;20.75;20.75;;;;;15.83;48.06;100983.00;4902483;29;9803;-79
2021/05/11 04:31:52;;;;;;;;;22.00;22.00;;;;;15.75;48.28;100974.81;4915877;29;9755;-80
2021/05/11 04:34:20;;;;;;;;;28.50;27.50;;;;;16.01;47.81;100972.28;4899579;29;9885;-78
2021/05/11 04:37:15;;;;;;;;;17.00;16.25;;;;;15.99;48.12;100969.03;4915479;29;10160;-79
2021/05/11 04:40:11;;;;;;;;;24.50;21.25;;;;;16.24;47.84;100954.88;4914587;29;9580;-79
2021/05/11 04:43:07;;;;;;;;;12.67;12.67;;;;;16.10;47.99;100952.56;4902371;29;9575;-79
2021/05/11 04:49:11;;;;;;;;;27.00;27.00;;;;;16.05;48.24;100938.91;4923803;29;9629;-80
2021/05/11 04:52:07;;;;;;;;;26.00;26.00;;;;;16.13;48.01;100930.34;4921466;29;9884;-79
2021/05/11 04:55:02;;;;;;;;;26.75;25.75;;;;;16.20;47.88;100918.53;4934011;29;10032;-78
2021/05/11 04:57:30;;;;;;;;;22.25;22.25;;;;;16.09;48.30;100943.38;4934858;29;9897;-80
2021/05/11 05:00:27;;;;;;;;;16.25;15.50;;;;;16.11;48.08;100935.47;4921420;29;9560;-80
2021/05/11 05:03:12;;;;;;;;;15.67;15.33;;;;;16.07;48.39;100930.97;4917634;29;9561;-78
2021/05/11 05:06:07;;;;;;;;;34.00;31.25;;;;;16.13;48.08;100921.97;4915129;29;9481;-79
2021/05/11 05:08:49;;;;;;;;;38.50;33.25;;;;;16.31;48.40;100904.81;4915189;29;9755;-79
2021/05/11 05:11:44;;;;;;;;;28.00;24.50;;;;;16.48;48.03;100923.13;4896112;29;10125;-78
2021/05/11 05:14:12;;;;;;;;;19.00;17.00;;;;;16.36;48.73;100905.34;4897029;29;10265;-79
2021/05/11 05:16:45;;;;;;;;;27.75;21.00;;;;;16.37;48.28;100898.59;4898954;29;9614;-79
2021/05/11 05:19:40;;;;;;;;;21.00;20.50;;;;;16.73;47.65;100896.59;4899239;29;9503;-78
2021/05/11 05:22:08;;;;;;;;;23.33;21.33;;;;;16.83;47.29;100904.38;4898002;29;9605;-79
2021/05/11 05:25:26;;;;;;;;;18.33;13.67;;;;;17.10;47.18;100901.69;4886849;29;9349;-78
2021/05/11 05:30:23;;;;;;;;;26.00;22.33;;;;;17.18;47.00;100897.88;4900208;29;9887;-79
2021/05/11 05:33:28;;;;;;;;;29.00;28.25;;;;;17.11;47.32;100883.78;4899157;29;9588;-80
2021/05/11 05:36:24;;;;;;;;;30.00;27.00;;;;;17.32;46.67;100889.72;4898681;29;9593;-80
2021/05/11 05:39:22;;;;;;;;;34.33;26.33;;;;;17.09;47.54;100881.31;4881193;29;9503;-78
2021/05/11 05:41:51;;;;;;;;;28.50;25.50;;;;;17.10;47.76;100888.56;4881631;29;9365;-80
2021/05/11 05:44:47;;;;;;;;;0.33;0.00;;;;;17.30;47.61;100885.69;4880998;29;9579;-78
2021/05/11 05:47:28;;;;;;;;;20.33;20.33;;;;;17.57;47.33;100870.63;4897941;29;9046;-79
2021/05/11 05:50:27;;;;;;;;;19.67;19.67;;;;;17.76;46.74;100886.53;4898253;29;9916;-78
2021/05/11 05:53:02;;;;;;;;;25.33;25.33;;;;;17.95;46.47;100874.44;4899862;29;9015;-79
2021/05/11 05:55:36;;;;;;;;;10.25;10.25;;;;;18.04;46.40;100891.75;4883661;29;9238;-78
2021/05/11 05:58:05;;;;;;;;;7.25;6.50;;;;;18.16;45.85;100885.94;4898105;29;8884;-77
2021/05/11 06:01:09;;;;;;;;;7.50;6.25;;;;;18.22;45.79;100897.63;4885524;29;8849;-76
2021/05/11 06:06:41;;;;;;;;;6.50;6.50;;;;;17.79;47.36;100930.56;4895912;29;10970;-77
2021/05/11 06:09:36;;;;;;;;;8.25;8.25;;;;;17.90;47.13;100917.53;4900257;29;9028;-77
2021/05/11 06:12:39;;;;;;;;;6.00;5.75;;;;;18.05;47.34;100913.78;4902845;29;9573;-77
2021/05/11 06:17:40;;;;;;;;;5.00;5.00;;;;;18.01;47.18;100910.09;4916686;29;9629;-77
2021/05/11 06:20:09;;;;;;;;;9.25;9.25;;;;;18.32;46.57;100922.16;4914606;29;8843;-78
2021/05/11 06:22:37;;;;;;;;;5.50;5.50;;;;;17.85;47.27;100928.22;4914359;29;8879;-75
2021/05/11 06:25:05;;;;;;;;;7.00;7.00;;;;;17.69;48.13;100933.91;4899943;29;8906;-75
2021/05/11 06:27:33;;;;;;;;;3.25;3.25;;;;;17.36;48.89;100912.19;4916015;29;8891;-76
2021/05/11 06:30:01;;;;;;;;;6.25;6.25;;;;;17.43;49.43;100926.28;4900308;29;8839;-76
2021/05/11 06:32:29;;;;;;;;;10.50;9.00;;;;;17.37;49.50;100914.59;4900117;29;8859;-78
2021/05/11 06:35:26;;;;;;;;;7.00;7.00;;;;;17.78;49.30;100906.53;4914829;29;8854;-80
2021/05/11 06:38:01;;;;;;;;;8.00;8.00;;;;;18.10;48.59;100921.06;4916502;29;8851;-77
2021/05/11 06:40:31;;;;;;;;;6.75;6.75;;;;;18.18;48.85;100914.38;4915322;29;8870;-78
2021/05/11 06:43:02;;;;;;;;;6.25;6.25;;;;;18.42;48.22;100918.72;4915487;29;8863;-80
2021/05/11 06:48:21;;;;;;;;;13.75;13.00;;;;;18.90;48.05;100938.59;4898805;29;8846;-80
2021/05/11 06:54:01;;;;;;;;;8.00;8.00;;;;;19.00;47.20;100946.31;4925848;29;8865;-79
2021/05/11 06:56:57;;;;;;;;;10.00;7.25;;;;;18.95;47.81;100937.44;4916747;29;8942;-80
2021/05/11 06:59:26;;;;;;;;;4.50;4.50;;;;;18.72;47.81;100946.78;4916546;29;8847;-81
2021/05/11 07:02:08;;;;;;;;;7.00;7.00;;;;;18.66;48.46;100950.28;4902724;29;8892;-81
2021/05/11 07:04:36;;;;;;;;;9.75;9.75;;;;;18.66;48.95;100964.28;4915736;29;8918;-79
2021/05/11 07:07:33;;;;;;;;;10.50;10.50;;;;;18.68;48.55;100947.91;4916388;29;8886;-79
2021/05/11 07:10:34;;;;;;;;;8.75;8.00;;;;;18.64;49.16;100924.63;4927197;29;8987;-79
2021/05/11 07:13:13;;;;;;;;;8.50;8.50;;;;;19.10;48.52;100931.63;4900682;29;8878;-81
2021/05/11 07:15:46;;;;;;;;;6.00;6.00;;;;;19.33;48.51;100936.28;4916954;29;8879;-81
2021/05/11 07:18:28;;;;;;;;;10.50;10.50;;;;;19.55;48.19;100940.91;4920917;29;9570;-81
2021/05/11 07:20:59;;;;;;;;;7.00;7.00;;;;;19.52;47.72;100941.66;4918584;29;8859;-78
2021/05/11 07:23:54;;;;;;;;;5.25;5.25;;;;;19.47;47.94;100950.41;4916057;29;8882;-79
2021/05/11 07:26:32;;;;;;;;;4.75;4.75;;;;;19.76;47.96;100939.50;4916361;29;8870;-80
2021/05/11 07:31:58;;;;;;;;;7.50;7.50;;;;;19.65;48.51;100945.03;4915660;29;8835;-80
2021/05/11 07:34:54;;;;;;;;;7.00;7.00;;;;;19.28;49.40;100943.03;4915682;29;8878;-78
2021/05/11 07:37:49;;;;;;;;;4.75;4.75;;;;;19.47;49.04;100941.19;4915841;29;8851;-81
2021/05/11 07:40:45;;;;;;;;;4.75;4.75;;;;;19.75;48.79;100957.53;4915600;29;8930;-80
2021/05/11 07:43:44;;;;;;;;;6.00;6.00;;;;;19.71;49.60;100949.91;4915620;29;8993;-79
2021/05/11 07:46:42;;;;;;;;;6.00;6.00;;;;;19.43;50.17;100952.41;4902276;29;8930;-80
2021/05/11 07:50:00;;;;;;;;;7.00;7.00;;;;;18.98;51.46;100951.50;4896057;29;8897;-80
2021/05/11 08:30:27;;;;;;;;;15.00;15.00;;;;;18.28;55.69;100980.09;4837432;29;8884;-78
2021/05/11 08:32:55;;;;;;;;;11.75;11.75;;;;;18.14;55.87;100993.88;4890928;29;8954;-78
2021/05/11 08:35:23;;;;;;;;;11.75;11.00;;;;;17.94;56.24;100996.75;4912648;29;9081;-78
2021/05/11 08:38:19;;;;;;;;;11.25;11.25;;;;;17.95;56.20;100995.56;4911059;29;8835;-79
2021/05/11 08:40:47;;;;;;;;;10.50;10.50;;;;;18.26;55.24;101000.06;4914646;29;8938;-77
2021/05/11 08:43:45;;;;;;;;;10.50;10.50;;;;;18.10;56.11;101001.41;4913881;29;8858;-79
2021/05/11 08:46:13;;;;;;;;;14.50;14.50;;;;;18.32;55.88;100992.16;4918665;29;8871;-78
2021/05/11 08:48:42;;;;;;;;;11.00;11.00;;;;;17.99;56.25;100993.63;4915353;29;8970;-78
2021/05/11 08:51:29;;;;;;;;;16.25;13.00;;;;;17.99;56.12;100996.41;4900228;29;8982;-78
2021/05/11 09:06:21;;;;;;;;;10.75;10.75;;;;;18.21;56.24;100999.59;4900820;29;8959;-78
2021/05/11 09:30:17;;;;;;;;;12.75;11.50;;;;;18.18;57.81;101037.53;4917293;29;8847;-77
2021/05/11 10:45:09;;;;;;;;;0.00;0.00;;;;;17.60;54.04;101132.75;4936349;29;8849;-78
2021/05/11 10:47:37;;;;;;;;;6.75;6.75;;;;;17.78;52.25;101127.53;4937378;29;8862;-77
2021/05/11 10:50:46;;;;;;;;;67.50;53.25;;;;;17.82;51.78;101116.41;4923995;29;9591;-78
2021/05/11 10:53:56;;;;;;;;;11.25;10.00;;;;;18.30;50.48;101128.91;4930920;29;10986;-77
2021/05/11 10:56:53;;;;;;;;;1.00;1.00;;;;;17.63;51.52;101131.19;4917107;29;8855;-77
2021/05/11 10:59:56;;;;;;;;;1.00;1.00;;;;;17.91;51.57;101123.41;4916903;29;8851;-78
2021/05/11 11:03:13;;;;;;;;;0.00;0.00;;;;;18.20;51.16;101135.13;4916859;29;8874;-76
2021/05/11 11:06:08;;;;;;;;;2.25;2.25;;;;;18.64;50.77;101127.09;4917100;29;8855;-77
2021/05/11 11:09:10;;;;;;;;;2.25;2.25;;;;;18.85;50.63;101133.06;4918177;29;8867;-77
2021/05/11 11:12:08;;;;;;;;;1.00;1.00;;;;;18.38;50.33;101138.25;4916743;29;8863;-75
2021/05/11 11:15:13;;;;;;;;;0.00;0.00;;;;;17.87;50.55;101150.50;4904584;29;8847;-76
2021/05/11 11:18:08;;;;;;;;;2.00;2.00;;;;;17.87;51.02;101160.91;4903541;29;8851;-77
2021/05/11 11:24:07;;;;;;;;;3.75;3.75;;;;;18.55;47.10;101143.34;4916251;29;8843;-75
2021/05/11 11:26:39;;;;;;;;;1.00;1.00;;;;;18.94;46.90;101141.22;4919443;29;8871;-76
2021/05/11 11:29:35;;;;;;;;;2.00;2.00;;;;;18.92;45.64;101137.97;4904462;29;9057;-76
2021/05/11 11:32:31;;;;;;;;;0.00;0.00;;;;;18.43;45.51;101132.34;4916559;29;9624;-76
2021/05/11 11:35:31;;;;;;;;;3.00;3.00;;;;;18.51;45.89;101145.28;4903647;29;8869;-75
2021/05/11 11:38:27;;;;;;;;;0.00;0.00;;;;;18.62;44.39;101140.66;4916034;29;8874;-75
2021/05/11 11:41:25;;;;;;;;;0.75;0.00;;;;;19.33;42.54;101129.78;4916226;29;8847;-77
2021/05/11 11:44:22;;;;;;;;;1.00;1.00;;;;;20.04;41.51;101129.84;4916032;29;8832;-76
2021/05/11 11:47:05;;;;;;;;;0.00;0.00;;;;;20.72;39.84;101151.00;4916943;29;8877;-76
2021/05/11 11:50:06;;;;;;;;;0.75;0.75;;;;;20.88;38.85;101131.03;4903272;29;8894;-76
2021/05/11 11:52:39;;;;;;;;;1.00;1.00;;;;;;;;4900326;29;8848;-75
2021/05/11 11:58:32;;;;;;;;;0.00;0.00;;;;;21.19;37.27;101129.63;4903434;29;8857;-75
2021/05/11 12:01:27;;;;;;;;;4.50;4.50;;;;;21.16;37.81;101124.75;4933110;29;9607;-76
2021/05/11 12:04:24;;;;;;;;;3.00;3.00;;;;;20.90;37.18;101120.19;4916502;29;8848;-76
2021/05/11 12:07:21;;;;;;;;;5.00;3.50;;;;;21.13;37.43;101119.94;4915523;29;8863;-76
2021/05/11 12:09:50;;;;;;;;;1.25;1.25;;;;;21.53;39.01;101130.22;4907189;29;8947;-75
2021/05/11 12:12:32;;;;;;;;;7.00;7.00;;;;;21.76;35.39;101130.72;4920559;29;8888;-76
2021/05/11 12:15:28;;;;;;;;;9.00;8.75;;;;;22.13;37.97;101133.28;4896835;29;8872;-76
2021/05/11 12:18:01;;;;;;;;;2.25;1.50;;;;;21.65;38.40;101127.06;4883212;29;8983;-74
2021/05/11 12:21:06;;;;;;;;;0.50;0.50;;;;;21.10;38.81;101135.59;4908816;29;8853;-75
2021/05/11 12:23:34;;;;;;;;;0.75;0.75;;;;;21.10;38.32;101129.97;4918852;29;8860;-74
2021/05/11 12:26:29;;;;;;;;;1.25;1.25;;;;;20.08;38.03;101133.50;4921067;29;8976;-77
2021/05/11 12:29:12;;;;;;;;;1.00;1.00;;;;;20.35;38.38;101136.97;4935310;29;9654;-75
2021/05/11 12:31:45;;;;;;;;;1.50;1.25;;;;;20.22;37.87;101134.44;4918679;29;8869;-77
2021/05/11 12:34:20;;;;;;;;;1.25;1.25;;;;;20.02;39.06;101121.00;4935577;29;8845;-75
2021/05/11 12:36:54;;;;;;;;;0.00;0.00;;;;;20.43;39.72;101125.41;4918792;29;8903;-76
2021/05/11 12:39:35;;;;;;;;;1.00;1.00;;;;;20.18;39.94;101127.19;4935612;29;8886;-74
2021/05/11 12:42:25;;;;;;;;;1.00;1.00;;;;;19.67;39.66;101131.44;4935539;29;8856;-75
2021/05/11 12:45:04;;;;;;;;;0.00;0.00;;;;;19.53;40.84;101134.03;4935552;29;8877;-76
2021/05/11 12:47:43;;;;;;;;;2.75;2.75;;;;;20.12;40.53;101129.53;4935418;29;8876;-75
2021/05/11 12:50:20;;;;;;;;;1.00;1.00;;;;;20.03;37.20;101139.47;4931457;29;8866;-77
2021/05/11 12:52:58;;;;;;;;;2.50;2.50;;;;;20.95;37.10;101134.69;4919376;29;8857;-75
2021/05/11 12:55:35;;;;;;;;;0.25;0.25;;;;;21.06;36.08;101140.38;4935375;29;8868;-74
2021/05/11 12:58:24;;;;;;;;;3.75;3.50;;;;;20.11;36.68;101141.97;4935370;29;8853;-77
2021/05/11 13:01:01;;;;;;;;;1.25;1.25;;;;;20.18;39.38;101147.66;4935015;29;8861;-77
2021/05/11 13:26:35;;;;;;;;;2.75;2.00;;;;;20.32;36.16;101177.06;4935145;29;8920;-79
2021/05/11 13:29:11;;;;;;;;;1.00;1.00;;;;;20.92;33.05;101169.19;4935066;29;8932;-82
2021/05/11 13:31:44;;;;;;;;;0.75;0.75;;;;;20.93;33.09;101175.63;4935605;29;8860;-81
2021/05/11 13:34:13;;;;;;;;;0.00;0.00;;;;;20.88;35.12;101176.00;4921822;29;8884;-81
2021/05/11 13:36:41;;;;;;;;;0.00;0.00;;;;;20.93;32.71;101170.81;4907806;29;8855;-81
2021/05/11 13:39:37;;;;;;;;;2.00;0.00;;;;;20.17;38.49;101179.75;4905917;29;8855;-79
2021/05/11 13:42:05;;;;;;;;;1.00;1.00;;;;;19.99;37.89;101173.91;4919294;29;8867;-79
2021/05/11 13:44:32;;;;;;;;;0.50;0.50;;;;;19.56;38.62;101185.78;4902566;29;9589;-77
2021/05/11 13:47:00;;;;;;;;;0.00;0.00;;;;;19.51;38.97;101181.28;4900882;29;9696;-79
2021/05/11 13:49:59;;;;;;;;;0.00;0.00;;;;;19.99;34.77;101168.28;4903222;29;8855;-78
2021/05/11 13:52:55;;;;;;;;;4.75;1.75;;;;;20.94;36.27;101182.88;4903836;29;8859;-78
2021/05/11 14:02:38;;;;;;;;;1.00;1.00;;;;;18.98;40.18;101184.13;4913954;29;8851;-80
2021/05/11 14:05:35;;;;;;;;;1.00;1.00;;;;;18.84;39.08;101187.50;4923204;29;8847;-80
2021/05/11 14:08:30;;;;;;;;;6.25;2.00;;;;;17.91;40.00;101198.13;4903469;29;8843;-78
2021/05/11 14:11:27;;;;;;;;;1.25;1.25;;;;;18.03;41.24;101196.00;4910780;29;8930;-79
2021/05/11 14:13:57;;;;;;;;;3.00;3.00;;;;;18.50;41.85;101189.28;4900411;29;9629;-79
2021/05/11 14:16:26;;;;;;;;;0.00;0.00;;;;;18.60;42.48;101185.84;4900333;29;8867;-78
2021/05/11 14:18:55;;;;;;;;;2.25;2.25;;;;;18.25;40.41;101199.22;4899987;29;8922;-74
2021/05/11 14:21:27;;;;;;;;;1.75;1.75;;;;;18.29;42.81;101202.88;4916743;29;8847;-74
2021/05/11 14:23:58;;;;;;;;;1.50;1.50;;;;;18.54;41.99;101200.53;4912174;29;8866;-75
2021/05/11 14:26:27;;;;;;;;;2.75;2.75;;;;;18.08;42.03;101216.47;4900483;29;8887;-74
2021/05/11 14:28:56;;;;;;;;;2.25;2.25;;;;;17.93;40.18;101212.56;4890432;29;8909;-75
2021/05/11 14:31:39;;;;;;;;;0.00;0.00;;;;;18.01;42.57;101200.34;4898563;29;8873;-80
2021/05/11 14:34:09;;;;;;;;;1.75;1.75;;;;;17.80;41.67;101202.72;4920277;29;8872;-80
2021/05/11 14:36:38;;;;;;;;;5.25;5.25;;;;;18.29;43.12;101212.09;4897687;29;8935;-79
2021/05/11 14:39:07;;;;;;;;;2.00;2.00;;;;;17.72;42.40;101210.94;4918356;29;8867;-79
2021/05/11 14:41:35;;;;;;;;;5.00;1.25;;;;;17.53;39.87;101202.50;4918428;29;8894;-78
2021/05/11 14:44:04;;;;;;;;;5.00;5.00;;;;;17.90;43.45;101213.31;4920188;29;8863;-77
2021/05/11 14:47:00;;;;;;;;;0.25;0.25;;;;;17.84;41.35;101210.00;4926279;29;9624;-78
2021/05/11 14:49:42;;;;;;;;;4.00;4.00;;;;;17.75;40.88;101220.59;4919350;29;8887;-78
2021/05/11 14:52:37;;;;;;;;;4.00;4.00;;;;;17.55;45.65;101211.31;4889742;29;9065;-78
2021/05/11 14:55:33;;;;;;;;;2.00;2.00;;;;;17.03;40.82;101206.13;4903513;29;8843;-78
2021/05/11 14:58:01;;;;;;;;;4.75;2.50;;;;;17.06;40.37;101214.59;4918311;29;8871;-79
2021/05/11 15:00:30;;;;;;;;;2.00;2.00;;;;;17.27;40.55;101211.50;4896828;29;8850;-78
2021/05/11 15:02:59;;;;;;;;;2.00;2.00;;;;;17.32;41.73;101216.78;4882831;29;8861;-79
2021/05/11 15:05:27;;;;;;;;;2.25;2.00;;;;;17.07;39.54;101207.81;4899479;29;8896;-78
2021/05/11 15:08:23;;;;;;;;;2.75;2.75;;;;;17.36;41.38;101200.94;4914301;29;8863;-78
2021/05/11 15:11:18;;;;;;;;;8.25;8.25;;;;;17.54;46.76;101217.28;4910747;29;8874;-78
2021/05/11 15:14:14;;;;;;;;;4.00;4.00;;;;;17.47;41.77;101215.94;4899952;29;8913;-79
2021/05/11 15:17:57;;;;;;;;;4.00;4.00;;;;;17.13;43.86;101217.56;4922910;29;8878;-78
2021/05/11 15:20:14;;;;;;;;;4.75;4.75;;;;;17.49;43.21;101213.63;4898051;29;9047;-78
2021/05/11 15:23:10;;;;;;;;;2.25;2.25;;;;;17.22;38.92;101215.38;4897725;29;8873;-78
2021/05/11 15:25:39;;;;;;;;;6.50;6.50;;;;;17.29;39.63;101214.75;4898309;29;8880;-77
2021/05/11 15:28:36;;;;;;;;;4.00;4.00;;;;;16.93;38.65;101218.66;4897030;29;8900;-76
2021/05/11 15:31:32;;;;;;;;;4.25;4.25;;;;;16.78;38.84;101223.06;4897036;29;8865;-77
2021/05/11 15:34:00;;;;;;;;;5.00;5.00;;;;;16.50;39.33;101222.31;4898201;29;9630;-77
2021/05/11 15:36:57;;;;;;;;;3.50;3.50;;;;;16.35;39.94;101210.75;4898773;29;8888;-79
2021/05/11 15:39:52;;;;;;;;;3.75;3.75;;;;;16.51;39.55;101221.94;4885499;29;8873;-77
2021/05/11 15:42:20;;;;;;;;;3.00;3.00;;;;;16.49;39.25;101227.09;4881580;29;8873;-76
2021/05/11 15:45:16;;;;;;;;;10.33;10.33;;;;;16.55;39.01;101236.00;4909276;29;8886;-77
2021/05/11 15:48:12;;;;;;;;;3.00;3.00;;;;;16.48;39.46;101233.00;4916281;29;9204;-77
2021/05/11 15:51:08;;;;;;;;;3.00;3.00;;;;;16.13;39.93;101228.88;4921642;29;8968;-78
2021/05/11 15:54:04;;;;;;;;;3.00;3.00;;;;;16.25;39.92;101219.63;4897467;29;8972;-78
2021/05/11 15:57:00;;;;;;;;;2.00;2.00;;;;;16.34;40.12;101231.47;4897454;29;8949;-78
2021/05/11 15:59:39;;;;;;;;;11.67;6.00;;;;;16.18;40.49;101225.03;4900731;29;9086;-77
2021/05/11 16:02:35;;;;;;;;;3.00;3.00;;;;;16.15;41.24;101224.94;4898905;29;9204;-77
2021/05/11 16:05:38;;;;;;;;;2.00;2.00;;;;;15.92;40.81;101239.44;4914545;29;9202;-77
2021/05/11 16:08:35;;;;;;;;;3.00;3.00;;;;;16.13;40.45;101228.06;4895273;29;9042;-79
2021/05/11 16:11:30;;;;;;;;;2.00;2.00;;;;;16.08;40.79;101233.91;4903420;29;9216;-77
2021/05/11 16:13:59;;;;;;;;;2.00;2.00;;;;;16.16;41.02;101230.16;4900924;29;9122;-77
2021/05/11 16:17:06;;;;;;;;;1.50;1.50;;;;;15.93;41.74;101226.28;4917750;29;9101;-78
2021/05/11 16:20:36;;;;;;;;;2.67;2.67;;;;;15.77;42.70;101238.19;4904516;29;9073;-77
2021/05/11 16:24:02;;;;;;;;;2.00;2.00;;;;;15.88;42.73;101235.75;4917264;29;9202;-76
2021/05/11 16:26:58;;;;;;;;;1.33;1.33;;;;;15.87;42.47;101238.84;4908296;29;9109;-77
2021/05/11 16:29:54;;;;;;;;;1.67;1.67;;;;;15.91;42.59;101237.00;4915656;29;9104;-77
2021/05/11 16:32:50;;;;;;;;;1.00;1.00;;;;;15.83;42.98;101227.63;4903020;29;9257;-77
2021/05/11 16:35:47;;;;;;;;;2.00;2.00;;;;;15.83;42.88;101227.63;4914579;29;9129;-77
2021/05/11 16:38:30;;;;;;;;;3.00;3.00;;;;;15.66;43.34;101225.13;4916893;29;9106;-78
2021/05/11 16:40:58;;;;;;;;;2.00;2.00;;;;;15.73;43.39;101222.53;4915860;29;9066;-77
2021/05/11 16:43:27;;;;;;;;;1.00;1.00;;;;;15.61;43.47;101230.88;4899656;29;9147;-75
2021/05/11 16:45:56;;;;;;;;;83.00;43.00;;;;;15.84;43.32;101232.03;4916225;29;9151;-76
2021/05/11 16:48:24;;;;;;;;;2.00;2.00;;;;;15.79;43.58;101232.25;4916125;29;10443;-77
2021/05/11 16:51:03;;;;;;;;;2.00;2.00;;;;;15.83;43.52;101228.41;4897414;29;9123;-76
2021/05/11 16:53:59;;;;;;;;;2.00;2.00;;;;;15.38;44.76;101225.81;4906285;29;9152;-77
2021/05/11 16:56:54;;;;;;;;;1.33;1.33;;;;;15.44;45.36;101235.56;4908428;29;9114;-75
2021/05/11 16:59:50;;;;;;;;;1.00;1.00;;;;;15.49;45.38;101232.56;4897992;29;9340;-77
2021/05/11 17:02:20;;;;;;;;;1.33;1.33;;;;;15.19;45.90;101232.00;4901207;29;9027;-77
2021/05/11 17:05:18;;;;;;;;;2.00;2.00;;;;;15.15;45.92;101231.06;4919985;29;9383;-77
2021/05/11 17:08:15;;;;;;;;;2.33;2.33;;;;;15.38;45.45;101222.22;4895829;29;9340;-76
2021/05/11 17:10:44;;;;;;;;;3.00;2.00;;;;;15.42;45.65;101223.97;4903877;29;9016;-78
2021/05/11 17:13:42;;;;;;;;;3.00;3.00;;;;;15.41;45.53;101224.28;4902000;29;9186;-77